Terminal Aerodrome Forecast
Issued by NWS Sterling, VA

Current Version | Previous Version | Graphics & Text | Print | Product List | Glossary On
Versions: 1 2 3 4 5 6 7 8 9 10 11 12 13 14 15 16 17 18 19 20 21 22 23 24 25 26 27 28 29
859
FTUS41 KLWX 022328
TAFIAD
TAF
KIAD 022328Z 0300/0406 12006KT P6SM OVC050
     FM030800 15007KT P6SM OVC030
     FM031000 15008KT 3SM -RA BR OVC015 WS020/17035KT
     FM031400 16011G21KT 1SM SHRA BR OVC008 WS020/18045KT
     FM031600 17012G24KT 2SM SHRA BR OVC008 WS020/19045KT
     FM031800 18013G23KT 2SM SHRA BR OVC015
     FM032300 20010KT 3SM BR OVC060
     FM040300 24006KT 5SM BR BKN070=

USA.gov is the U.S. government's official web portal to all federal, state and local government web resources and services.